Pacaja, Brazil
Current Conditions -  °F | °C
As of 2:00 PM on Tuesday 27 Jan 2015 (Local Time) from SBHT Reporting Station
Broken Clouds Broken Clouds  
Wind Chill: 93°   Ceiling: 2300
Heat Index: 105°   Visibility: 6mi
Dew Point: 75°   Wind: 5mph
Humidity: 56%   Direction: 110°ESE
Pressure: 29.85"   Gusts: NA
Location:  3.84°S, 50.64°W
Report Text: SBHT 271700Z 11004KT 9999 BKN023 34/24 Q1011
Loading
Personal Weather Stations






























Interactive Weather Map New forecast layout! Learn more

10-Day Weather Forecast

Advertisements
Track Severe Weather on mobile